sensor_id;sensor_type;location;lat;lon;timestamp;temperature;humidity
7194;DHT22;3638;48.820;9.244;2022-07-29T00:00:15;20.40;99.90
7194;DHT22;3638;48.820;9.244;2022-07-29T00:02:42;20.40;99.90
7194;DHT22;3638;48.820;9.244;2022-07-29T00:05:09;20.60;99.90
7194;DHT22;3638;48.820;9.244;2022-07-29T00:07:38;20.50;99.90
7194;DHT22;3638;48.820;9.244;2022-07-29T00:10:06;20.50;99.90
7194;DHT22;3638;48.820;9.244;2022-07-29T00:12:34;20.50;99.90
7194;DHT22;3638;48.820;9.244;2022-07-29T00:15:01;20.30;99.90
7194;DHT22;3638;48.820;9.244;2022-07-29T00:17:28;20.20;99.90
7194;DHT22;3638;48.820;9.244;2022-07-29T00:19:55;20.20;99.90
7194;DHT22;3638;48.820;9.244;2022-07-29T00:22:22;20.30;99.90
7194;DHT22;3638;48.820;9.244;2022-07-29T00:24:49;18.50;99.90
7194;DHT22;3638;48.820;9.244;2022-07-29T00:27:17;20.20;99.90
7194;DHT22;3638;48.820;9.244;2022-07-29T00:29:45;20.10;99.90
7194;DHT22;3638;48.820;9.244;2022-07-29T00:32:12;20.20;99.90
7194;DHT22;3638;48.820;9.244;2022-07-29T00:34:39;20.30;99.90
7194;DHT22;3638;48.820;9.244;2022-07-29T00:37:23;20.20;99.90
7194;DHT22;3638;48.820;9.244;2022-07-29T00:39:50;20.20;99.90
7194;DHT22;3638;48.820;9.244;2022-07-29T00:42:17;20.20;99.90
7194;DHT22;3638;48.820;9.244;2022-07-29T00:44:45;20.20;99.90
7194;DHT22;3638;48.820;9.244;2022-07-29T00:47:12;20.10;99.90
7194;DHT22;3638;48.820;9.244;2022-07-29T00:49:40;20.00;99.90
7194;DHT22;3638;48.820;9.244;2022-07-29T00:52:08;19.90;99.90
7194;DHT22;3638;48.820;9.244;2022-07-29T00:54:38;19.90;99.90
7194;DHT22;3638;48.820;9.244;2022-07-29T00:57:06;19.80;99.90
7194;DHT22;3638;48.820;9.244;2022-07-29T00:59:34;19.80;99.90
7194;DHT22;3638;48.820;9.244;2022-07-29T01:02:02;19.80;99.90
7194;DHT22;3638;48.820;9.244;2022-07-29T01:04:30;19.80;99.90
7194;DHT22;3638;48.820;9.244;2022-07-29T01:06:57;19.80;99.90
7194;DHT22;3638;48.820;9.244;2022-07-29T01:09:24;19.80;99.90
7194;DHT22;3638;48.820;9.244;2022-07-29T01:11:52;19.90;99.90
7194;DHT22;3638;48.820;9.244;2022-07-29T01:14:21;19.90;99.90
7194;DHT22;3638;48.820;9.244;2022-07-29T01:17:00;19.90;99.90
7194;DHT22;3638;48.820;9.244;2022-07-29T01:19:51;19.90;99.90
7194;DHT22;3638;48.820;9.244;2022-07-29T01:22:28;20.00;99.90
7194;DHT22;3638;48.820;9.244;2022-07-29T01:31:33;20.00;99.90
7194;DHT22;3638;48.820;9.244;2022-07-29T01:34:07;20.10;99.90
7194;DHT22;3638;48.820;9.244;2022-07-29T01:36:40;20.00;99.90
7194;DHT22;3638;48.820;9.244;2022-07-29T01:39:13;20.10;99.90
7194;DHT22;3638;48.820;9.244;2022-07-29T01:41:49;20.00;99.90
7194;DHT22;3638;48.820;9.244;2022-07-29T01:44:27;20.10;99.90
7194;DHT22;3638;48.820;9.244;2022-07-29T01:47:00;19.90;99.90
7194;DHT22;3638;48.820;9.244;2022-07-29T01:49:33;20.00;99.90
7194;DHT22;3638;48.820;9.244;2022-07-29T01:52:05;19.90;99.90
7194;DHT22;3638;48.820;9.244;2022-07-29T01:54:38;19.80;99.90
7194;DHT22;3638;48.820;9.244;2022-07-29T01:57:09;19.80;99.90
7194;DHT22;3638;48.820;9.244;2022-07-29T01:59:40;19.80;99.90
7194;DHT22;3638;48.820;9.244;2022-07-29T02:02:10;19.80;99.90
7194;DHT22;3638;48.820;9.244;2022-07-29T02:04:40;19.80;99.90
7194;DHT22;3638;48.820;9.244;2022-07-29T02:07:12;19.80;99.90
7194;DHT22;3638;48.820;9.244;2022-07-29T02:09:43;19.70;99.90
7194;DHT22;3638;48.820;9.244;2022-07-29T02:12:11;18.20;99.90
7194;DHT22;3638;48.820;9.244;2022-07-29T02:14:42;19.70;99.90
7194;DHT22;3638;48.820;9.244;2022-07-29T02:17:12;19.70;99.90
7194;DHT22;3638;48.820;9.244;2022-07-29T02:19:43;19.70;99.90
7194;DHT22;3638;48.820;9.244;2022-07-29T02:22:11;19.60;99.90
7194;DHT22;3638;48.820;9.244;2022-07-29T02:24:39;19.50;99.90
7194;DHT22;3638;48.820;9.244;2022-07-29T02:27:07;19.60;99.90
7194;DHT22;3638;48.820;9.244;2022-07-29T02:29:35;19.50;99.90
7194;DHT22;3638;48.820;9.244;2022-07-29T02:32:07;19.50;99.90
7194;DHT22;3638;48.820;9.244;2022-07-29T02:34:38;19.50;99.90
7194;DHT22;3638;48.820;9.244;2022-07-29T02:37:05;19.50;99.90
7194;DHT22;3638;48.820;9.244;2022-07-29T02:39:35;19.50;99.90
7194;DHT22;3638;48.820;9.244;2022-07-29T02:42:05;19.60;99.90
7194;DHT22;3638;48.820;9.244;2022-07-29T02:44:34;19.50;99.90
7194;DHT22;3638;48.820;9.244;2022-07-29T02:47:06;19.50;99.90
7194;DHT22;3638;48.820;9.244;2022-07-29T02:49:38;19.30;99.90
7194;DHT22;3638;48.820;9.244;2022-07-29T02:52:11;19.50;99.90
7194;DHT22;3638;48.820;9.244;2022-07-29T02:54:44;19.60;99.90
7194;DHT22;3638;48.820;9.244;2022-07-29T02:57:20;19.60;99.90
7194;DHT22;3638;48.820;9.244;2022-07-29T02:59:51;19.60;99.90
7194;DHT22;3638;48.820;9.244;2022-07-29T03:02:20;19.60;99.90
7194;DHT22;3638;48.820;9.244;2022-07-29T03:04:49;19.60;99.90
7194;DHT22;3638;48.820;9.244;2022-07-29T03:07:18;21.40;99.90
7194;DHT22;3638;48.820;9.244;2022-07-29T03:09:46;19.50;99.90
7194;DHT22;3638;48.820;9.244;2022-07-29T03:12:14;19.40;99.90
7194;DHT22;3638;48.820;9.244;2022-07-29T03:14:43;19.40;99.90
7194;DHT22;3638;48.820;9.244;2022-07-29T03:17:10;19.50;99.90
7194;DHT22;3638;48.820;9.244;2022-07-29T03:19:39;19.50;99.90
7194;DHT22;3638;48.820;9.244;2022-07-29T03:22:06;19.00;99.90
7194;DHT22;3638;48.820;9.244;2022-07-29T03:24:34;18.70;99.90
7194;DHT22;3638;48.820;9.244;2022-07-29T03:27:03;18.50;99.90
7194;DHT22;3638;48.820;9.244;2022-07-29T03:29:31;18.40;99.90
7194;DHT22;3638;48.820;9.244;2022-07-29T03:31:58;18.50;99.90
7194;DHT22;3638;48.820;9.244;2022-07-29T03:34:25;18.50;99.90
7194;DHT22;3638;48.820;9.244;2022-07-29T03:36:53;18.40;99.90
7194;DHT22;3638;48.820;9.244;2022-07-29T03:39:24;18.40;99.90
7194;DHT22;3638;48.820;9.244;2022-07-29T03:41:55;18.40;99.90
7194;DHT22;3638;48.820;9.244;2022-07-29T03:44:23;18.50;99.90
7194;DHT22;3638;48.820;9.244;2022-07-29T03:46:54;18.70;99.90
7194;DHT22;3638;48.820;9.244;2022-07-29T03:49:23;18.70;99.90
7194;DHT22;3638;48.820;9.244;2022-07-29T03:51:53;18.70;99.90
7194;DHT22;3638;48.820;9.244;2022-07-29T03:54:20;18.70;99.90
7194;DHT22;3638;48.820;9.244;2022-07-29T03:56:48;18.70;99.90
7194;DHT22;3638;48.820;9.244;2022-07-29T03:59:17;18.80;99.90
7194;DHT22;3638;48.820;9.244;2022-07-29T04:01:46;18.80;99.90
7194;DHT22;3638;48.820;9.244;2022-07-29T04:04:13;18.90;99.90
7194;DHT22;3638;48.820;9.244;2022-07-29T04:06:40;19.40;99.90
7194;DHT22;3638;48.820;9.244;2022-07-29T04:09:10;18.70;99.90
7194;DHT22;3638;48.820;9.244;2022-07-29T04:11:38;18.70;99.90
7194;DHT22;3638;48.820;9.244;2022-07-29T04:14:06;18.80;99.90
7194;DHT22;3638;48.820;9.244;2022-07-29T04:16:33;18.40;99.90
7194;DHT22;3638;48.820;9.244;2022-07-29T04:19:00;19.00;99.90
7194;DHT22;3638;48.820;9.244;2022-07-29T04:21:27;19.10;99.90
7194;DHT22;3638;48.820;9.244;2022-07-29T04:23:54;19.20;99.90
7194;DHT22;3638;48.820;9.244;2022-07-29T04:26:22;19.40;99.90
7194;DHT22;3638;48.820;9.244;2022-07-29T04:28:49;19.40;99.90
7194;DHT22;3638;48.820;9.244;2022-07-29T04:31:16;19.40;99.90
7194;DHT22;3638;48.820;9.244;2022-07-29T04:33:43;19.50;99.90
7194;DHT22;3638;48.820;9.244;2022-07-29T04:36:10;19.50;99.90
7194;DHT22;3638;48.820;9.244;2022-07-29T04:38:37;19.70;99.90
7194;DHT22;3638;48.820;9.244;2022-07-29T04:41:05;19.80;99.90
7194;DHT22;3638;48.820;9.244;2022-07-29T04:43:35;19.70;99.90
7194;DHT22;3638;48.820;9.244;2022-07-29T04:46:02;19.70;99.90
7194;DHT22;3638;48.820;9.244;2022-07-29T04:48:29;19.90;99.90
7194;DHT22;3638;48.820;9.244;2022-07-29T04:50:56;20.00;99.90
7194;DHT22;3638;48.820;9.244;2022-07-29T04:53:23;20.20;99.90
7194;DHT22;3638;48.820;9.244;2022-07-29T04:55:50;20.20;99.90
7194;DHT22;3638;48.820;9.244;2022-07-29T04:58:17;20.40;99.90
7194;DHT22;3638;48.820;9.244;2022-07-29T05:00:46;20.50;99.90
7194;DHT22;3638;48.820;9.244;2022-07-29T05:03:12;20.70;99.90
7194;DHT22;3638;48.820;9.244;2022-07-29T05:05:39;21.00;99.90
7194;DHT22;3638;48.820;9.244;2022-07-29T05:08:07;21.10;99.90
7194;DHT22;3638;48.820;9.244;2022-07-29T05:10:34;20.90;99.90
7194;DHT22;3638;48.820;9.244;2022-07-29T05:13:04;20.90;99.90
7194;DHT22;3638;48.820;9.244;2022-07-29T05:15:31;20.90;99.90
7194;DHT22;3638;48.820;9.244;2022-07-29T05:18:00;21.10;99.90
7194;DHT22;3638;48.820;9.244;2022-07-29T05:20:28;21.20;99.90
7194;DHT22;3638;48.820;9.244;2022-07-29T05:22:55;21.40;99.90
7194;DHT22;3638;48.820;9.244;2022-07-29T05:25:23;21.70;99.90
7194;DHT22;3638;48.820;9.244;2022-07-29T05:27:50;22.10;99.80
7194;DHT22;3638;48.820;9.244;2022-07-29T05:30:17;22.10;99.80
7194;DHT22;3638;48.820;9.244;2022-07-29T05:32:44;22.00;99.70
7194;DHT22;3638;48.820;9.244;2022-07-29T05:35:14;22.10;99.10
7194;DHT22;3638;48.820;9.244;2022-07-29T05:37:42;21.90;99.60
7194;DHT22;3638;48.820;9.244;2022-07-29T05:40:09;21.90;99.40
7194;DHT22;3638;48.820;9.244;2022-07-29T05:42:37;22.20;98.80
7194;DHT22;3638;48.820;9.244;2022-07-29T05:45:04;22.10;98.50
7194;DHT22;3638;48.820;9.244;2022-07-29T05:47:32;22.40;97.90
7194;DHT22;3638;48.820;9.244;2022-07-29T05:49:59;22.40;98.00
7194;DHT22;3638;48.820;9.244;2022-07-29T05:52:27;22.50;98.20
7194;DHT22;3638;48.820;9.244;2022-07-29T05:54:54;22.80;97.00
7194;DHT22;3638;48.820;9.244;2022-07-29T05:57:22;22.90;96.40
7194;DHT22;3638;48.820;9.244;2022-07-29T05:59:50;22.90;96.40
7194;DHT22;3638;48.820;9.244;2022-07-29T06:02:18;22.90;96.70
7194;DHT22;3638;48.820;9.244;2022-07-29T06:04:45;22.80;96.60
7194;DHT22;3638;48.820;9.244;2022-07-29T06:07:12;22.90;96.70
7194;DHT22;3638;48.820;9.244;2022-07-29T06:09:40;23.10;95.90
7194;DHT22;3638;48.820;9.244;2022-07-29T06:12:07;23.30;96.00
7194;DHT22;3638;48.820;9.244;2022-07-29T06:14:35;22.60;94.70
7194;DHT22;3638;48.820;9.244;2022-07-29T06:17:03;23.60;95.10
7194;DHT22;3638;48.820;9.244;2022-07-29T06:19:30;23.70;94.80
7194;DHT22;3638;48.820;9.244;2022-07-29T06:21:57;23.70;94.80
7194;DHT22;3638;48.820;9.244;2022-07-29T06:24:24;24.00;94.60
7194;DHT22;3638;48.820;9.244;2022-07-29T06:26:52;24.30;94.10
7194;DHT22;3638;48.820;9.244;2022-07-29T06:29:19;24.60;93.40
7194;DHT22;3638;48.820;9.244;2022-07-29T06:31:46;24.90;92.60
7194;DHT22;3638;48.820;9.244;2022-07-29T06:34:13;25.20;92.30
7194;DHT22;3638;48.820;9.244;2022-07-29T06:36:40;25.60;91.80
7194;DHT22;3638;48.820;9.244;2022-07-29T06:39:07;26.00;90.30
7194;DHT22;3638;48.820;9.244;2022-07-29T06:41:35;25.90;90.50
7194;DHT22;3638;48.820;9.244;2022-07-29T06:44:03;26.00;90.30
7194;DHT22;3638;48.820;9.244;2022-07-29T06:46:30;25.70;91.00
7194;DHT22;3638;48.820;9.244;2022-07-29T06:48:57;26.50;91.10
7194;DHT22;3638;48.820;9.244;2022-07-29T06:51:26;25.80;91.10
7194;DHT22;3638;48.820;9.244;2022-07-29T06:53:53;26.00;90.20
7194;DHT22;3638;48.820;9.244;2022-07-29T06:56:20;26.20;90.10
7194;DHT22;3638;48.820;9.244;2022-07-29T06:58:47;26.10;89.90
7194;DHT22;3638;48.820;9.244;2022-07-29T07:01:16;25.90;89.80
7194;DHT22;3638;48.820;9.244;2022-07-29T07:03:42;26.20;90.00
7194;DHT22;3638;48.820;9.244;2022-07-29T07:06:09;26.60;88.70
7194;DHT22;3638;48.820;9.244;2022-07-29T07:08:36;26.70;87.80
7194;DHT22;3638;48.820;9.244;2022-07-29T07:11:03;26.70;87.40
7194;DHT22;3638;48.820;9.244;2022-07-29T07:13:31;26.90;86.40
7194;DHT22;3638;48.820;9.244;2022-07-29T07:16:00;26.60;88.00
7194;DHT22;3638;48.820;9.244;2022-07-29T07:18:28;27.10;86.50
7194;DHT22;3638;48.820;9.244;2022-07-29T07:20:56;27.10;87.10
7194;DHT22;3638;48.820;9.244;2022-07-29T07:23:23;27.20;85.50
7194;DHT22;3638;48.820;9.244;2022-07-29T07:25:50;27.40;85.00
7194;DHT22;3638;48.820;9.244;2022-07-29T07:28:17;27.40;85.00
7194;DHT22;3638;48.820;9.244;2022-07-29T07:30:45;27.20;84.70
7194;DHT22;3638;48.820;9.244;2022-07-29T07:33:12;27.00;85.50
7194;DHT22;3638;48.820;9.244;2022-07-29T07:35:41;26.90;84.70
7194;DHT22;3638;48.820;9.244;2022-07-29T07:38:08;27.10;84.70
7194;DHT22;3638;48.820;9.244;2022-07-29T07:40:35;27.00;85.20
7194;DHT22;3638;48.820;9.244;2022-07-29T07:43:02;26.90;86.30
7194;DHT22;3638;48.820;9.244;2022-07-29T07:45:29;26.80;86.80
7194;DHT22;3638;48.820;9.244;2022-07-29T07:47:57;27.40;84.60
7194;DHT22;3638;48.820;9.244;2022-07-29T07:50:24;27.60;84.80
7194;DHT22;3638;48.820;9.244;2022-07-29T07:52:55;27.60;84.00
7194;DHT22;3638;48.820;9.244;2022-07-29T07:55:23;28.00;82.80
7194;DHT22;3638;48.820;9.244;2022-07-29T07:57:51;27.90;82.20
7194;DHT22;3638;48.820;9.244;2022-07-29T08:00:18;28.10;82.70
7194;DHT22;3638;48.820;9.244;2022-07-29T08:02:44;28.30;81.80
7194;DHT22;3638;48.820;9.244;2022-07-29T08:05:12;27.90;81.00
7194;DHT22;3638;48.820;9.244;2022-07-29T08:07:42;28.10;81.00
7194;DHT22;3638;48.820;9.244;2022-07-29T08:10:12;27.90;81.50
7194;DHT22;3638;48.820;9.244;2022-07-29T08:12:39;27.80;82.00
7194;DHT22;3638;48.820;9.244;2022-07-29T08:15:07;27.30;82.50
7194;DHT22;3638;48.820;9.244;2022-07-29T08:17:35;27.90;81.60
7194;DHT22;3638;48.820;9.244;2022-07-29T08:20:02;27.90;81.70
7194;DHT22;3638;48.820;9.244;2022-07-29T08:22:30;28.60;79.10
7194;DHT22;3638;48.820;9.244;2022-07-29T08:24:56;28.10;79.90
7194;DHT22;3638;48.820;9.244;2022-07-29T08:27:25;28.60;79.20
7194;DHT22;3638;48.820;9.244;2022-07-29T08:29:54;28.60;79.60
7194;DHT22;3638;48.820;9.244;2022-07-29T08:32:21;28.30;79.20
7194;DHT22;3638;48.820;9.244;2022-07-29T08:34:48;27.70;79.90
7194;DHT22;3638;48.820;9.244;2022-07-29T08:37:15;27.40;82.20
7194;DHT22;3638;48.820;9.244;2022-07-29T08:39:42;27.90;80.50
7194;DHT22;3638;48.820;9.244;2022-07-29T08:42:10;27.80;79.00
7194;DHT22;3638;48.820;9.244;2022-07-29T08:44:39;28.30;80.00
7194;DHT22;3638;48.820;9.244;2022-07-29T08:47:06;28.40;77.60
7194;DHT22;3638;48.820;9.244;2022-07-29T08:49:33;28.00;79.00
7194;DHT22;3638;48.820;9.244;2022-07-29T08:52:02;27.40;81.50
7194;DHT22;3638;48.820;9.244;2022-07-29T08:54:29;27.40;81.90
7194;DHT22;3638;48.820;9.244;2022-07-29T08:56:57;27.80;80.70
7194;DHT22;3638;48.820;9.244;2022-07-29T08:59:27;27.70;78.70
7194;DHT22;3638;48.820;9.244;2022-07-29T09:01:57;27.90;79.00
7194;DHT22;3638;48.820;9.244;2022-07-29T09:04:29;27.60;78.80
7194;DHT22;3638;48.820;9.244;2022-07-29T09:07:00;27.80;78.20
7194;DHT22;3638;48.820;9.244;2022-07-29T09:09:31;27.90;76.80
7194;DHT22;3638;48.820;9.244;2022-07-29T09:11:59;27.70;77.70
7194;DHT22;3638;48.820;9.244;2022-07-29T09:14:26;27.80;74.60
7194;DHT22;3638;48.820;9.244;2022-07-29T09:16:55;28.30;73.90
7194;DHT22;3638;48.820;9.244;2022-07-29T09:19:25;28.60;74.70
7194;DHT22;3638;48.820;9.244;2022-07-29T09:21:53;28.70;75.90
7194;DHT22;3638;48.820;9.244;2022-07-29T09:24:24;28.20;74.00
7194;DHT22;3638;48.820;9.244;2022-07-29T09:26:52;28.00;73.40
7194;DHT22;3638;48.820;9.244;2022-07-29T09:29:22;28.20;70.10
7194;DHT22;3638;48.820;9.244;2022-07-29T09:31:51;28.30;70.80
7194;DHT22;3638;48.820;9.244;2022-07-29T09:34:24;28.00;71.10
7194;DHT22;3638;48.820;9.244;2022-07-29T09:36:53;27.90;69.70
7194;DHT22;3638;48.820;9.244;2022-07-29T09:39:31;27.60;72.00
7194;DHT22;3638;48.820;9.244;2022-07-29T09:41:59;28.00;72.30
7194;DHT22;3638;48.820;9.244;2022-07-29T09:44:40;28.10;70.10
7194;DHT22;3638;48.820;9.244;2022-07-29T09:47:09;28.80;68.30
7194;DHT22;3638;48.820;9.244;2022-07-29T09:49:53;28.70;67.30
7194;DHT22;3638;48.820;9.244;2022-07-29T09:52:23;28.70;68.10
7194;DHT22;3638;48.820;9.244;2022-07-29T09:54:50;28.40;67.90
7194;DHT22;3638;48.820;9.244;2022-07-29T09:57:23;28.50;65.90
7194;DHT22;3638;48.820;9.244;2022-07-29T09:59:59;28.40;66.60
7194;DHT22;3638;48.820;9.244;2022-07-29T10:02:31;28.60;67.90
7194;DHT22;3638;48.820;9.244;2022-07-29T10:05:00;28.60;68.40
7194;DHT22;3638;48.820;9.244;2022-07-29T10:07:44;28.80;65.90
7194;DHT22;3638;48.820;9.244;2022-07-29T10:10:18;28.90;66.60
7194;DHT22;3638;48.820;9.244;2022-07-29T10:12:51;28.70;67.00
7194;DHT22;3638;48.820;9.244;2022-07-29T10:15:21;28.50;68.00
7194;DHT22;3638;48.820;9.244;2022-07-29T10:17:50;28.40;66.90
7194;DHT22;3638;48.820;9.244;2022-07-29T10:20:19;27.80;67.90
7194;DHT22;3638;48.820;9.244;2022-07-29T10:22:46;27.80;69.10
7194;DHT22;3638;48.820;9.244;2022-07-29T10:25:14;28.00;69.90
7194;DHT22;3638;48.820;9.244;2022-07-29T10:27:42;28.40;67.60
7194;DHT22;3638;48.820;9.244;2022-07-29T10:30:10;28.50;68.30
7194;DHT22;3638;48.820;9.244;2022-07-29T10:32:49;28.70;67.70
7194;DHT22;3638;48.820;9.244;2022-07-29T10:35:37;28.40;67.70
7194;DHT22;3638;48.820;9.244;2022-07-29T10:38:37;28.20;68.30
7194;DHT22;3638;48.820;9.244;2022-07-29T10:41:21;28.10;69.90
7194;DHT22;3638;48.820;9.244;2022-07-29T10:44:01;27.80;70.30
7194;DHT22;3638;48.820;9.244;2022-07-29T10:46:35;27.40;71.30
7194;DHT22;3638;48.820;9.244;2022-07-29T10:49:08;27.10;72.80
7194;DHT22;3638;48.820;9.244;2022-07-29T10:51:57;27.20;72.20
7194;DHT22;3638;48.820;9.244;2022-07-29T10:54:39;27.00;72.30
7194;DHT22;3638;48.820;9.244;2022-07-29T10:57:16;26.90;74.30
7194;DHT22;3638;48.820;9.244;2022-07-29T10:59:46;26.70;73.50
7194;DHT22;3638;48.820;9.244;2022-07-29T11:02:42;26.70;79.70
7194;DHT22;3638;48.820;9.244;2022-07-29T11:05:18;26.20;79.90
7194;DHT22;3638;48.820;9.244;2022-07-29T11:08:18;26.10;77.30
7194;DHT22;3638;48.820;9.244;2022-07-29T11:10:48;26.10;78.20
7194;DHT22;3638;48.820;9.244;2022-07-29T11:13:44;26.20;82.00
7194;DHT22;3638;48.820;9.244;2022-07-29T11:16:13;26.10;88.20
7194;DHT22;3638;48.820;9.244;2022-07-29T11:21:48;26.10;90.10
7194;DHT22;3638;48.820;9.244;2022-07-29T11:24:19;26.00;91.10
7194;DHT22;3638;48.820;9.244;2022-07-29T11:29:54;24.90;96.90
7194;DHT22;3638;48.820;9.244;2022-07-29T11:32:23;24.50;98.30
7194;DHT22;3638;48.820;9.244;2022-07-29T11:35:13;24.50;98.90
7194;DHT22;3638;48.820;9.244;2022-07-29T11:37:41;23.80;99.90
7194;DHT22;3638;48.820;9.244;2022-07-29T11:40:14;23.80;99.90
7194;DHT22;3638;48.820;9.244;2022-07-29T11:42:49;23.80;99.90
7194;DHT22;3638;48.820;9.244;2022-07-29T11:45:22;23.60;99.90
7194;DHT22;3638;48.820;9.244;2022-07-29T11:47:55;22.90;99.90
7194;DHT22;3638;48.820;9.244;2022-07-29T11:50:35;22.90;99.90
7194;DHT22;3638;48.820;9.244;2022-07-29T11:53:09;22.60;99.90
7194;DHT22;3638;48.820;9.244;2022-07-29T11:55:39;22.60;99.90
7194;DHT22;3638;48.820;9.244;2022-07-29T11:58:07;22.70;99.10
7194;DHT22;3638;48.820;9.244;2022-07-29T12:00:36;22.70;99.60
7194;DHT22;3638;48.820;9.244;2022-07-29T12:03:05;22.80;99.90
7194;DHT22;3638;48.820;9.244;2022-07-29T12:05:35;22.90;99.70
7194;DHT22;3638;48.820;9.244;2022-07-29T12:08:12;23.10;99.80
7194;DHT22;3638;48.820;9.244;2022-07-29T12:10:42;23.30;99.90
7194;DHT22;3638;48.820;9.244;2022-07-29T12:13:10;23.50;99.70
7194;DHT22;3638;48.820;9.244;2022-07-29T12:15:37;23.50;99.00
7194;DHT22;3638;48.820;9.244;2022-07-29T12:18:12;23.60;99.60
7194;DHT22;3638;48.820;9.244;2022-07-29T12:20:41;23.60;98.50
7194;DHT22;3638;48.820;9.244;2022-07-29T12:23:09;23.70;97.30
7194;DHT22;3638;48.820;9.244;2022-07-29T12:25:38;23.60;97.80
7194;DHT22;3638;48.820;9.244;2022-07-29T12:28:08;23.50;97.30
7194;DHT22;3638;48.820;9.244;2022-07-29T12:30:39;23.60;96.50
7194;DHT22;3638;48.820;9.244;2022-07-29T12:33:11;23.80;95.00
7194;DHT22;3638;48.820;9.244;2022-07-29T12:35:44;24.10;94.70
7194;DHT22;3638;48.820;9.244;2022-07-29T12:38:13;23.90;93.80
7194;DHT22;3638;48.820;9.244;2022-07-29T12:40:42;23.80;94.40
7194;DHT22;3638;48.820;9.244;2022-07-29T12:43:12;23.90;94.40
7194;DHT22;3638;48.820;9.244;2022-07-29T12:45:43;23.70;94.40
7194;DHT22;3638;48.820;9.244;2022-07-29T12:48:12;23.80;94.60
7194;DHT22;3638;48.820;9.244;2022-07-29T12:50:53;23.60;95.10
7194;DHT22;3638;48.820;9.244;2022-07-29T12:53:22;23.60;94.30
7194;DHT22;3638;48.820;9.244;2022-07-29T12:55:51;23.40;94.90
7194;DHT22;3638;48.820;9.244;2022-07-29T12:58:32;23.60;94.90
7194;DHT22;3638;48.820;9.244;2022-07-29T13:01:08;23.40;94.50
7194;DHT22;3638;48.820;9.244;2022-07-29T13:03:51;23.50;94.20
7194;DHT22;3638;48.820;9.244;2022-07-29T13:06:34;23.20;94.70
7194;DHT22;3638;48.820;9.244;2022-07-29T13:09:06;23.00;94.70
7194;DHT22;3638;48.820;9.244;2022-07-29T13:11:36;23.00;95.90
7194;DHT22;3638;48.820;9.244;2022-07-29T13:14:07;23.00;96.10
7194;DHT22;3638;48.820;9.244;2022-07-29T13:16:35;22.70;96.10
7194;DHT22;3638;48.820;9.244;2022-07-29T13:19:05;22.60;94.70
7194;DHT22;3638;48.820;9.244;2022-07-29T13:21:33;22.50;96.50
7194;DHT22;3638;48.820;9.244;2022-07-29T13:24:00;22.50;95.70
7194;DHT22;3638;48.820;9.244;2022-07-29T13:26:27;22.50;95.20
7194;DHT22;3638;48.820;9.244;2022-07-29T13:28:54;22.50;95.30
7194;DHT22;3638;48.820;9.244;2022-07-29T13:31:22;22.40;96.70
7194;DHT22;3638;48.820;9.244;2022-07-29T13:33:49;22.20;98.20
7194;DHT22;3638;48.820;9.244;2022-07-29T13:36:16;22.20;99.20
7194;DHT22;3638;48.820;9.244;2022-07-29T13:38:43;22.00;99.90
7194;DHT22;3638;48.820;9.244;2022-07-29T13:41:10;22.00;99.90
7194;DHT22;3638;48.820;9.244;2022-07-29T13:43:37;21.60;99.90
7194;DHT22;3638;48.820;9.244;2022-07-29T13:46:04;21.60;99.90
7194;DHT22;3638;48.820;9.244;2022-07-29T13:48:32;21.60;99.90
7194;DHT22;3638;48.820;9.244;2022-07-29T13:50:59;21.70;99.90
7194;DHT22;3638;48.820;9.244;2022-07-29T13:53:26;21.70;99.90
7194;DHT22;3638;48.820;9.244;2022-07-29T13:55:53;22.00;99.90
7194;DHT22;3638;48.820;9.244;2022-07-29T13:58:20;22.30;99.90
7194;DHT22;3638;48.820;9.244;2022-07-29T14:00:47;22.50;99.90
7194;DHT22;3638;48.820;9.244;2022-07-29T14:03:14;22.60;99.90
7194;DHT22;3638;48.820;9.244;2022-07-29T14:05:42;23.00;99.90
7194;DHT22;3638;48.820;9.244;2022-07-29T14:08:09;23.60;99.90
7194;DHT22;3638;48.820;9.244;2022-07-29T14:10:36;23.60;99.90
7194;DHT22;3638;48.820;9.244;2022-07-29T14:13:03;23.60;99.90
7194;DHT22;3638;48.820;9.244;2022-07-29T14:15:29;23.80;99.90
7194;DHT22;3638;48.820;9.244;2022-07-29T14:17:56;24.00;99.90
7194;DHT22;3638;48.820;9.244;2022-07-29T14:20:23;24.10;99.90
7194;DHT22;3638;48.820;9.244;2022-07-29T14:22:51;24.00;99.90
7194;DHT22;3638;48.820;9.244;2022-07-29T14:25:18;24.10;99.40
7194;DHT22;3638;48.820;9.244;2022-07-29T14:27:45;24.10;99.50
7194;DHT22;3638;48.820;9.244;2022-07-29T14:30:12;24.00;99.40
7194;DHT22;3638;48.820;9.244;2022-07-29T14:32:39;24.10;99.20
7194;DHT22;3638;48.820;9.244;2022-07-29T14:35:07;24.10;99.40
7194;DHT22;3638;48.820;9.244;2022-07-29T14:37:35;24.00;98.10
7194;DHT22;3638;48.820;9.244;2022-07-29T14:40:04;24.00;98.50
7194;DHT22;3638;48.820;9.244;2022-07-29T14:42:32;24.10;98.90
7194;DHT22;3638;48.820;9.244;2022-07-29T14:44:59;23.80;99.30
7194;DHT22;3638;48.820;9.244;2022-07-29T14:47:25;24.20;99.30
7194;DHT22;3638;48.820;9.244;2022-07-29T14:49:52;24.10;99.30
7194;DHT22;3638;48.820;9.244;2022-07-29T14:52:19;24.00;99.50
7194;DHT22;3638;48.820;9.244;2022-07-29T14:54:46;24.00;99.70
7194;DHT22;3638;48.820;9.244;2022-07-29T14:57:14;24.00;99.40
7194;DHT22;3638;48.820;9.244;2022-07-29T14:59:41;24.00;99.20
7194;DHT22;3638;48.820;9.244;2022-07-29T15:02:09;24.00;99.50
7194;DHT22;3638;48.820;9.244;2022-07-29T15:04:36;24.20;99.20
7194;DHT22;3638;48.820;9.244;2022-07-29T15:07:03;24.10;99.10
7194;DHT22;3638;48.820;9.244;2022-07-29T15:09:30;24.00;99.50
7194;DHT22;3638;48.820;9.244;2022-07-29T15:11:56;23.90;99.30
7194;DHT22;3638;48.820;9.244;2022-07-29T15:14:25;23.80;99.90
7194;DHT22;3638;48.820;9.244;2022-07-29T15:16:51;24.00;99.10
7194;DHT22;3638;48.820;9.244;2022-07-29T15:19:18;24.00;98.70
7194;DHT22;3638;48.820;9.244;2022-07-29T15:21:45;23.90;99.80
7194;DHT22;3638;48.820;9.244;2022-07-29T15:24:12;23.90;99.80
7194;DHT22;3638;48.820;9.244;2022-07-29T15:26:39;23.90;99.50
7194;DHT22;3638;48.820;9.244;2022-07-29T15:29:07;23.90;99.50
7194;DHT22;3638;48.820;9.244;2022-07-29T15:31:35;23.90;99.20
7194;DHT22;3638;48.820;9.244;2022-07-29T15:34:02;23.80;99.00
7194;DHT22;3638;48.820;9.244;2022-07-29T15:36:30;23.80;99.10
7194;DHT22;3638;48.820;9.244;2022-07-29T15:38:57;23.70;99.10
7194;DHT22;3638;48.820;9.244;2022-07-29T15:41:24;23.90;99.20
7194;DHT22;3638;48.820;9.244;2022-07-29T15:43:51;24.00;98.10
7194;DHT22;3638;48.820;9.244;2022-07-29T15:46:19;23.90;98.80
7194;DHT22;3638;48.820;9.244;2022-07-29T15:49:06;23.80;98.80
7194;DHT22;3638;48.820;9.244;2022-07-29T15:51:33;23.90;99.30
7194;DHT22;3638;48.820;9.244;2022-07-29T15:54:00;23.90;99.00
7194;DHT22;3638;48.820;9.244;2022-07-29T15:56:28;23.80;99.20
7194;DHT22;3638;48.820;9.244;2022-07-29T15:58:55;23.80;99.80
7194;DHT22;3638;48.820;9.244;2022-07-29T16:01:23;23.80;99.80
7194;DHT22;3638;48.820;9.244;2022-07-29T16:03:51;23.60;99.90
7194;DHT22;3638;48.820;9.244;2022-07-29T16:06:19;23.60;99.90
7194;DHT22;3638;48.820;9.244;2022-07-29T16:08:46;23.60;99.60
7194;DHT22;3638;48.820;9.244;2022-07-29T16:11:13;23.60;99.90
7194;DHT22;3638;48.820;9.244;2022-07-29T16:13:40;23.60;99.90
7194;DHT22;3638;48.820;9.244;2022-07-29T16:16:07;23.70;99.90
7194;DHT22;3638;48.820;9.244;2022-07-29T16:18:34;23.80;99.50
7194;DHT22;3638;48.820;9.244;2022-07-29T16:21:01;23.80;99.80
7194;DHT22;3638;48.820;9.244;2022-07-29T16:23:29;23.70;99.70
7194;DHT22;3638;48.820;9.244;2022-07-29T16:25:56;23.90;99.10
7194;DHT22;3638;48.820;9.244;2022-07-29T16:28:23;24.00;98.80